Time;durP1;ratioP1;P1;durP2;ratioP2;P2;SDS_P1;SDS_P2;PMS_P1;PMS_P2;Temp;Humidity;BMP_temperature;BMP_pressure;BME280_temperature;BME280_humidity;BME280_pressure;Samples;Min_cycle;Max_cycle;Signal;HPM_P1;HPM_P2
2022/12/07 00:02:15;;;;;;;;;;;4.10;99.90;;;;;;4992057;28;1226;-61
2022/12/07 00:04:41;;;;;;;;;;;4.20;99.90;;;;;;4992211;28;1930;-61
2022/12/07 00:07:06;;;;;;;;;;;4.30;99.90;;;;;;4992224;28;1242;-61
2022/12/07 00:09:32;;;;;;;;;;;4.30;99.90;;;;;;4979720;28;1099;-61
2022/12/07 00:11:57;;;;;;;;;;;4.40;99.90;;;;;;4993949;28;1229;-61
2022/12/07 00:14:23;;;;;;;;;;;4.40;99.90;;;;;;4993192;28;1246;-61
2022/12/07 00:16:50;;;;;;;;;;;4.80;99.90;;;;;;4992647;28;1240;-61
2022/12/07 00:19:16;;;;;;;;;;;4.40;99.90;;;;;;4992494;28;1184;-61
2022/12/07 00:21:42;;;;;;;;;;;4.40;99.90;;;;;;5000988;28;1095;-61
2022/12/07 00:24:08;;;;;;;;;;;4.40;99.90;;;;;;5011512;28;1922;-61
2022/12/07 00:26:35;;;;;;;;;;;4.50;99.90;;;;;;5012219;28;1163;-61
2022/12/07 00:29:03;;;;;;;;;;;4.30;99.90;;;;;;4998769;28;1173;-61
2022/12/07 00:31:33;;;;;;;;;;;4.40;99.90;;;;;;4996219;28;1630;-61
2022/12/07 00:33:59;;;;;;;;;;;4.30;99.90;;;;;;4974673;28;1103;-61
2022/12/07 00:36:25;;;;;;;;;;;4.40;99.90;;;;;;4991716;28;1219;-61
2022/12/07 00:38:50;;;;;;;;;;;4.30;99.90;;;;;;4991036;28;1227;-61
2022/12/07 00:41:17;;;;;;;;;;;4.30;99.90;;;;;;4992158;28;1095;-61
2022/12/07 00:43:44;;;;;;;;;;;4.30;99.90;;;;;;4991865;28;1911;-61
2022/12/07 00:46:10;;;;;;;;;;;4.40;99.90;;;;;;4991009;28;1177;-61
2022/12/07 00:48:36;;;;;;;;;;;4.40;99.90;;;;;;5008794;28;1087;-61
2022/12/07 00:51:02;;;;;;;;;;;4.40;99.90;;;;;;5011504;28;1130;-61
2022/12/07 00:53:27;;;;;;;;;;;4.50;99.90;;;;;;4989085;28;1181;-61
2022/12/07 00:55:55;;;;;;;;;;;4.60;99.90;;;;;;5002112;28;1117;-61
2022/12/07 00:58:21;;;;;;;;;;;4.60;99.90;;;;;;5011385;28;1261;-61
2022/12/07 01:00:46;;;;;;;;;;;4.60;99.90;;;;;;5010665;28;1086;-61
2022/12/07 01:03:13;;;;;;;;;;;4.50;99.90;;;;;;5010989;28;1906;-61
2022/12/07 01:05:38;;;;;;;;;;;4.50;99.90;;;;;;5002013;28;1182;-61
2022/12/07 01:08:04;;;;;;;;;;;4.50;99.90;;;;;;5010140;28;1074;-61
2022/12/07 01:10:31;;;;;;;;;;;4.50;99.90;;;;;;4995260;28;1188;-61
2022/12/07 01:12:57;;;;;;;;;;;4.50;99.90;;;;;;4994412;28;1067;-61
2022/12/07 01:15:23;;;;;;;;;;;4.60;99.90;;;;;;4991204;28;1497;-61
2022/12/07 01:17:48;;;;;;;;;;;4.70;99.90;;;;;;4991463;28;1127;-61
2022/12/07 01:20:15;;;;;;;;;;;4.80;99.90;;;;;;4990731;28;1111;-61
2022/12/07 01:22:41;;;;;;;;;;;5.00;99.90;;;;;;4973354;28;1167;-61
2022/12/07 01:25:08;;;;;;;;;;;4.80;99.90;;;;;;4991380;28;1910;-61
2022/12/07 01:27:34;;;;;;;;;;;4.80;99.90;;;;;;4990510;28;1110;-61
2022/12/07 01:30:00;;;;;;;;;;;4.80;99.90;;;;;;4990608;28;1382;-61
2022/12/07 01:32:25;;;;;;;;;;;4.80;99.90;;;;;;4990684;28;1358;-61
2022/12/07 01:34:51;;;;;;;;;;;4.80;99.90;;;;;;4990786;28;1111;-61
2022/12/07 01:37:17;;;;;;;;;;;4.80;99.90;;;;;;4990866;28;1281;-61
2022/12/07 01:39:42;;;;;;;;;;;4.80;99.90;;;;;;4990671;28;1122;-61
2022/12/07 01:42:10;;;;;;;;;;;4.70;99.90;;;;;;4972985;28;964;-61
2022/12/07 01:44:54;;;;;;;;;;;4.70;99.90;;;;;;4991012;28;1910;-61
2022/12/07 01:47:20;;;;;;;;;;;4.70;99.90;;;;;;4991082;28;1135;-61
2022/12/07 01:49:48;;;;;;;;;;;4.70;99.90;;;;;;4972311;28;1165;-61
2022/12/07 01:52:17;;;;;;;;;;;4.70;99.90;;;;;;4990589;28;1071;-61
2022/12/07 01:54:44;;;;;;;;;;;4.60;99.90;;;;;;4973194;28;1194;-61
2022/12/07 01:57:10;;;;;;;;;;;4.70;99.90;;;;;;4972362;28;1097;-61
2022/12/07 01:59:36;;;;;;;;;;;4.70;99.90;;;;;;5004901;28;1159;-61
2022/12/07 02:02:03;;;;;;;;;;;5.10;99.90;;;;;;5009626;28;1110;-61
2022/12/07 02:04:29;;;;;;;;;;;4.80;99.90;;;;;;5009205;28;1902;-61
2022/12/07 02:06:55;;;;;;;;;;;4.90;99.90;;;;;;5003216;28;1164;-61
2022/12/07 02:09:20;;;;;;;;;;;5.00;99.90;;;;;;4991635;28;1087;-61
2022/12/07 02:11:46;;;;;;;;;;;5.00;99.90;;;;;;5009988;28;1126;-61
2022/12/07 02:14:12;;;;;;;;;;;5.00;99.90;;;;;;5006738;28;1106;-61
2022/12/07 02:16:48;;;;;;;;;;;5.00;99.90;;;;;;4998097;28;1032;-61
2022/12/07 02:19:39;;;;;;;;;;;5.00;99.90;;;;;;5009736;28;1110;-61
2022/12/07 02:22:18;;;;;;;;;;;4.90;99.90;;;;;;5010008;28;1154;-61
2022/12/07 02:24:56;;;;;;;;;;;4.70;99.90;;;;;;5002296;28;2031;-61
2022/12/07 02:27:34;;;;;;;;;;;4.60;99.90;;;;;;5007886;28;1110;-61
2022/12/07 02:30:02;;;;;;;;;;;4.50;99.90;;;;;;4990200;28;1455;-61
2022/12/07 02:32:35;;;;;;;;;;;4.40;99.90;;;;;;4993417;28;1362;-61
2022/12/07 02:35:05;;;;;;;;;;;4.40;99.90;;;;;;5009129;28;1157;-61
2022/12/07 02:37:37;;;;;;;;;;;4.40;99.90;;;;;;4985197;28;1318;-61
2022/12/07 02:40:09;;;;;;;;;;;4.60;99.90;;;;;;4990087;28;1106;-61
2022/12/07 02:42:38;;;;;;;;;;;4.20;99.90;;;;;;4989441;28;1183;-61
2022/12/07 02:45:05;;;;;;;;;;;4.20;99.90;;;;;;4989382;28;1972;-61
2022/12/07 02:47:31;;;;;;;;;;;4.20;99.90;;;;;;4990000;28;1095;-61
2022/12/07 02:49:57;;;;;;;;;;;4.20;99.90;;;;;;4991654;28;1087;-61
2022/12/07 02:52:23;;;;;;;;;;;4.20;99.90;;;;;;4990729;28;1190;-60
2022/12/07 02:54:48;;;;;;;;;;;4.20;99.90;;;;;;4989864;28;1158;-61
2022/12/07 02:57:22;;;;;;;;;;;4.20;99.90;;;;;;4989748;28;1178;-61
2022/12/07 03:00:00;;;;;;;;;;;4.30;99.90;;;;;;4991653;28;1146;-61
2022/12/07 03:02:35;;;;;;;;;;;4.40;99.90;;;;;;4992017;28;1142;-61
2022/12/07 03:05:01;;;;;;;;;;;4.50;99.90;;;;;;4992612;28;1975;-61
2022/12/07 03:07:44;;;;;;;;;;;4.50;99.90;;;;;;4989132;28;1041;-61
2022/12/07 03:10:17;;;;;;;;;;;4.60;99.90;;;;;;4991604;28;1249;-61
2022/12/07 03:12:42;;;;;;;;;;;4.50;99.90;;;;;;5010384;28;1090;-61
2022/12/07 03:15:11;;;;;;;;;;;4.50;99.90;;;;;;4996219;28;1405;-61
2022/12/07 03:17:39;;;;;;;;;;;4.50;99.90;;;;;;4995402;28;1253;-61
2022/12/07 03:20:05;;;;;;;;;;;4.60;99.90;;;;;;5012304;28;1102;-61
2022/12/07 03:22:33;;;;;;;;;;;4.50;99.90;;;;;;5013306;28;1075;-61
2022/12/07 03:25:01;;;;;;;;;;;4.50;99.90;;;;;;5011893;28;1922;-61
2022/12/07 03:27:31;;;;;;;;;;;4.40;99.90;;;;;;4974930;28;1142;-61
2022/12/07 03:30:05;;;;;;;;;;;4.40;99.90;;;;;;4993410;28;1428;-61
2022/12/07 03:32:37;;;;;;;;;;;4.30;99.90;;;;;;4975866;28;1470;-61
2022/12/07 03:35:05;;;;;;;;;;;4.30;99.90;;;;;;4992226;28;1091;-61
2022/12/07 03:37:33;;;;;;;;;;;4.30;99.90;;;;;;5006155;28;1267;-61
2022/12/07 03:40:23;;;;;;;;;;;4.80;99.90;;;;;;4993258;28;1158;-61
2022/12/07 03:42:49;;;;;;;;;;;4.20;99.90;;;;;;4992125;28;1119;-61
2022/12/07 03:45:15;;;;;;;;;;;4.10;99.90;;;;;;4993131;28;1917;-61
2022/12/07 03:47:53;;;;;;;;;;;4.00;99.90;;;;;;4992631;28;1087;-61
2022/12/07 03:50:18;;;;;;;;;;;4.00;99.90;;;;;;4992838;28;1147;-61
2022/12/07 03:52:48;;;;;;;;;;;3.90;99.90;;;;;;4992816;28;1016;-61
2022/12/07 03:55:18;;;;;;;;;;;3.90;99.90;;;;;;4994774;28;1118;-61
2022/12/07 03:57:46;;;;;;;;;;;3.90;99.90;;;;;;4975064;28;1883;-61
2022/12/07 04:00:12;;;;;;;;;;;4.20;99.90;;;;;;4992590;28;1111;-61
2022/12/07 04:02:38;;;;;;;;;;;3.90;99.90;;;;;;5003876;28;1160;-61
2022/12/07 04:05:06;;;;;;;;;;;4.00;99.90;;;;;;5011864;28;1918;-61
2022/12/07 04:07:31;;;;;;;;;;;4.00;99.90;;;;;;4994806;28;1107;-61
2022/12/07 04:09:57;;;;;;;;;;;4.00;99.90;;;;;;5005318;28;1102;-61
2022/12/07 04:12:23;;;;;;;;;;;4.00;99.90;;;;;;5011938;28;1158;-61
2022/12/07 04:14:49;;;;;;;;;;;4.00;99.90;;;;;;4997351;28;1216;-61
2022/12/07 04:17:14;;;;;;;;;;;4.00;99.90;;;;;;4991697;28;1176;-60
2022/12/07 04:19:40;;;;;;;;;;;4.10;99.90;;;;;;4997267;28;1104;-61
2022/12/07 04:22:06;;;;;;;;;;;4.10;99.90;;;;;;5011823;28;1014;-60
2022/12/07 04:24:32;;;;;;;;;;;4.10;99.90;;;;;;4992948;28;1989;-60
2022/12/07 04:26:58;;;;;;;;;;;4.10;99.90;;;;;;5010198;28;1211;-61
2022/12/07 04:29:24;;;;;;;;;;;4.20;99.90;;;;;;4974937;28;1115;-61
2022/12/07 04:31:50;;;;;;;;;;;4.10;99.90;;;;;;4968430;28;1624;-60
2022/12/07 04:34:16;;;;;;;;;;;4.10;99.90;;;;;;4991653;28;1120;-60
2022/12/07 04:36:42;;;;;;;;;;;4.10;99.90;;;;;;4991996;28;1204;-60
2022/12/07 04:39:08;;;;;;;;;;;4.00;99.90;;;;;;4991433;28;1399;-61
2022/12/07 04:41:34;;;;;;;;;;;4.00;99.90;;;;;;4991999;28;1106;-61
2022/12/07 04:44:01;;;;;;;;;;;4.00;99.90;;;;;;4991517;28;1999;-60
2022/12/07 04:46:27;;;;;;;;;;;4.00;99.90;;;;;;4991615;28;1094;-60
2022/12/07 04:48:54;;;;;;;;;;;4.20;99.90;;;;;;4991752;28;1266;-60
2022/12/07 04:51:21;;;;;;;;;;;4.10;99.90;;;;;;4973716;28;1107;-61
2022/12/07 04:53:46;;;;;;;;;;;4.10;99.90;;;;;;4991764;28;1170;-61
2022/12/07 04:56:13;;;;;;;;;;;4.10;99.90;;;;;;5005339;28;1167;-61
2022/12/07 04:58:38;;;;;;;;;;;4.10;99.90;;;;;;5010624;28;1161;-61
2022/12/07 05:01:04;;;;;;;;;;;4.10;99.90;;;;;;5011224;28;1177;-61
2022/12/07 05:03:30;;;;;;;;;;;4.00;99.90;;;;;;5007336;28;1934;-60
2022/12/07 05:05:55;;;;;;;;;;;4.00;99.90;;;;;;4992689;28;1404;-61
2022/12/07 05:08:21;;;;;;;;;;;4.00;99.90;;;;;;5011407;28;1189;-61
2022/12/07 05:10:48;;;;;;;;;;;4.00;99.90;;;;;;4992591;28;1204;-61
2022/12/07 05:13:14;;;;;;;;;;;4.40;99.90;;;;;;4995433;28;1129;-61
2022/12/07 05:15:39;;;;;;;;;;;3.80;99.90;;;;;;4973875;28;1158;-61
2022/12/07 05:18:05;;;;;;;;;;;3.80;99.90;;;;;;4991368;28;1115;-61
2022/12/07 05:20:31;;;;;;;;;;;3.70;99.90;;;;;;4972695;28;1148;-61
2022/12/07 05:22:58;;;;;;;;;;;3.90;99.90;;;;;;5010852;28;1300;-60
2022/12/07 05:25:24;;;;;;;;;;;3.50;99.90;;;;;;5010608;28;1922;-60
2022/12/07 05:27:49;;;;;;;;;;;3.40;99.90;;;;;;5004913;28;1107;-60
2022/12/07 05:30:15;;;;;;;;;;;3.40;99.90;;;;;;4990856;28;1294;-60
2022/12/07 05:32:40;;;;;;;;;;;3.40;99.90;;;;;;4990462;28;1385;-60
2022/12/07 05:35:06;;;;;;;;;;;3.60;99.90;;;;;;4989979;28;1104;-60
2022/12/07 05:37:32;;;;;;;;;;;3.80;99.90;;;;;;4990868;28;1278;-60
2022/12/07 05:39:58;;;;;;;;;;;3.80;99.90;;;;;;4990465;28;1194;-62
2022/12/07 05:42:23;;;;;;;;;;;4.50;99.90;;;;;;4990460;28;1164;-61
2022/12/07 05:44:49;;;;;;;;;;;3.90;99.90;;;;;;4991004;28;1911;-61
2022/12/07 05:47:15;;;;;;;;;;;3.90;99.90;;;;;;4995616;28;1234;-61
2022/12/07 05:49:40;;;;;;;;;;;3.90;99.90;;;;;;5010371;28;1176;-61
2022/12/07 05:52:06;;;;;;;;;;;3.90;99.90;;;;;;5010427;28;1086;-61
2022/12/07 05:54:32;;;;;;;;;;;4.00;99.90;;;;;;5009340;28;1134;-61
2022/12/07 05:56:58;;;;;;;;;;;4.00;99.90;;;;;;5001512;28;1104;-61
2022/12/07 05:59:24;;;;;;;;;;;4.00;99.90;;;;;;5010314;28;1150;-63
2022/12/07 06:01:50;;;;;;;;;;;4.00;99.90;;;;;;5009169;28;1169;-61
2022/12/07 06:04:16;;;;;;;;;;;4.00;99.90;;;;;;5008680;28;1920;-61
2022/12/07 06:06:42;;;;;;;;;;;4.00;99.90;;;;;;5009221;28;1099;-60
2022/12/07 06:09:08;;;;;;;;;;;4.10;99.90;;;;;;5004411;28;1163;-60
2022/12/07 06:14:28;;;;;;;;;;;3.80;99.90;;;;;;4993071;28;1300;-61
2022/12/07 06:16:54;;;;;;;;;;;3.70;99.90;;;;;;5008932;28;1201;-61
2022/12/07 06:19:19;;;;;;;;;;;3.60;99.90;;;;;;5009724;28;1084;-60
2022/12/07 06:21:45;;;;;;;;;;;3.50;99.90;;;;;;5010020;28;1157;-60
2022/12/07 06:24:12;;;;;;;;;;;3.60;99.90;;;;;;4991151;28;1960;-60
2022/12/07 06:26:37;;;;;;;;;;;3.60;99.90;;;;;;4990272;28;1139;-60
2022/12/07 06:29:03;;;;;;;;;;;3.60;99.90;;;;;;4990090;28;1111;-61
2022/12/07 06:31:29;;;;;;;;;;;3.60;99.90;;;;;;4988806;28;1579;-60
2022/12/07 06:33:59;;;;;;;;;;;3.70;99.90;;;;;;4990168;28;1165;-60
2022/12/07 06:36:25;;;;;;;;;;;3.70;99.90;;;;;;4990126;28;1110;-60
2022/12/07 06:38:51;;;;;;;;;;;3.70;99.90;;;;;;4988945;28;1314;-61
2022/12/07 06:41:16;;;;;;;;;;;3.60;99.90;;;;;;4999983;28;1164;-60
2022/12/07 06:43:42;;;;;;;;;;;3.60;99.90;;;;;;4991389;28;1979;-61
2022/12/07 06:46:08;;;;;;;;;;;3.50;99.90;;;;;;4996014;28;1147;-60
2022/12/07 06:48:33;;;;;;;;;;;3.30;99.90;;;;;;4989098;28;1104;-60
2022/12/07 06:50:59;;;;;;;;;;;3.30;99.90;;;;;;4999462;28;1079;-60
2022/12/07 06:53:25;;;;;;;;;;;3.20;99.90;;;;;;5009258;28;1142;-60
2022/12/07 06:55:50;;;;;;;;;;;3.20;99.90;;;;;;5009240;28;1130;-60
2022/12/07 06:58:16;;;;;;;;;;;3.10;99.90;;;;;;5003077;28;1316;-61
2022/12/07 07:00:42;;;;;;;;;;;3.10;99.90;;;;;;5009334;28;1145;-61
2022/12/07 07:03:08;;;;;;;;;;;2.80;99.90;;;;;;5009091;28;1142;-60
2022/12/07 07:05:34;;;;;;;;;;;2.80;99.90;;;;;;5008288;28;1914;-61
2022/12/07 07:08:02;;;;;;;;;;;2.50;99.90;;;;;;4992816;28;1098;-61
2022/12/07 07:10:28;;;;;;;;;;;2.50;99.90;;;;;;4999328;28;1221;-60
2022/12/07 07:12:53;;;;;;;;;;;2.40;99.90;;;;;;5002509;28;1153;-61
2022/12/07 07:15:19;;;;;;;;;;;2.40;99.90;;;;;;5004622;28;1549;-61
2022/12/07 07:17:45;;;;;;;;;;;2.40;99.90;;;;;;5005658;28;1142;-60
2022/12/07 07:20:11;;;;;;;;;;;2.20;99.90;;;;;;5008703;28;1095;-61
2022/12/07 07:22:36;;;;;;;;;;;2.00;99.90;;;;;;5008788;28;1182;-61
2022/12/07 07:25:03;;;;;;;;;;;1.40;99.90;;;;;;4999375;28;1910;-61
2022/12/07 07:27:29;;;;;;;;;;;2.00;99.90;;;;;;4990696;28;1218;-61
2022/12/07 07:29:54;;;;;;;;;;;2.00;99.90;;;;;;4989446;28;1281;-61
2022/12/07 07:32:21;;;;;;;;;;;2.00;99.90;;;;;;4989259;28;1144;-61
2022/12/07 07:34:47;;;;;;;;;;;2.00;99.90;;;;;;4988806;28;1203;-61
2022/12/07 07:37:13;;;;;;;;;;;2.00;99.90;;;;;;4989573;28;1345;-61
2022/12/07 07:39:39;;;;;;;;;;;2.00;99.90;;;;;;4988914;28;1257;-61
2022/12/07 07:42:05;;;;;;;;;;;2.00;99.90;;;;;;4977401;28;1198;-60
2022/12/07 07:44:32;;;;;;;;;;;2.20;99.90;;;;;;4975500;28;1982;-61
2022/12/07 07:46:58;;;;;;;;;;;3.00;99.90;;;;;;4988555;28;1103;-61
2022/12/07 07:49:23;;;;;;;;;;;2.40;99.90;;;;;;4989417;28;1115;-61
2022/12/07 07:51:49;;;;;;;;;;;2.80;99.90;;;;;;4992510;28;1194;-61
2022/12/07 07:54:15;;;;;;;;;;;2.60;99.90;;;;;;5007834;28;1153;-61
2022/12/07 07:56:40;;;;;;;;;;;2.70;99.90;;;;;;5009012;28;1098;-61
2022/12/07 07:59:06;;;;;;;;;;;2.80;99.90;;;;;;5009852;28;1177;-61
2022/12/07 08:01:32;;;;;;;;;;;3.00;99.90;;;;;;5008292;28;1132;-61
2022/12/07 08:03:57;;;;;;;;;;;2.90;99.90;;;;;;4998408;28;1922;-61
2022/12/07 08:06:23;;;;;;;;;;;3.40;99.90;;;;;;4993918;28;1258;-61
2022/12/07 08:08:49;;;;;;;;;;;3.10;99.90;;;;;;4993643;28;1217;-61
2022/12/07 08:11:14;;;;;;;;;;;3.20;99.90;;;;;;4996661;28;1281;-61
2022/12/07 08:13:40;;;;;;;;;;;3.20;99.90;;;;;;5004903;28;1177;-61
2022/12/07 08:16:07;;;;;;;;;;;3.50;99.90;;;;;;4991862;28;1111;-61
2022/12/07 08:18:35;;;;;;;;;;;3.40;99.90;;;;;;4985135;28;1208;-61
2022/12/07 08:21:01;;;;;;;;;;;3.40;99.90;;;;;;5008563;28;1134;-62
2022/12/07 08:23:26;;;;;;;;;;;3.40;99.90;;;;;;4992713;28;1964;-62
2022/12/07 08:25:52;;;;;;;;;;;3.40;99.90;;;;;;4992579;28;1040;-61
2022/12/07 08:28:18;;;;;;;;;;;3.40;99.90;;;;;;4993613;28;1095;-62
2022/12/07 08:30:43;;;;;;;;;;;3.40;99.90;;;;;;4991123;28;1377;-61
2022/12/07 08:33:10;;;;;;;;;;;3.30;99.90;;;;;;4992543;28;1587;-62
2022/12/07 08:35:35;;;;;;;;;;;3.40;99.90;;;;;;4995553;28;1135;-61
2022/12/07 08:38:02;;;;;;;;;;;3.40;99.90;;;;;;4992839;28;2907;-62
2022/12/07 08:40:28;;;;;;;;;;;3.70;99.90;;;;;;4989705;28;1143;-62
2022/12/07 08:42:54;;;;;;;;;;;3.60;99.90;;;;;;4991142;28;2485;-62
2022/12/07 08:45:20;;;;;;;;;;;3.80;99.90;;;;;;4988177;28;3137;-62
2022/12/07 08:47:56;;;;;;;;;;;3.80;99.90;;;;;;4974514;28;3008;-62
2022/12/07 08:50:23;;;;;;;;;;;3.90;99.90;;;;;;4991342;28;1213;-62
2022/12/07 08:52:57;;;;;;;;;;;4.10;99.90;;;;;;4991846;28;3038;-61
2022/12/07 08:55:23;;;;;;;;;;;4.30;99.90;;;;;;4991536;28;1653;-61
2022/12/07 08:57:49;;;;;;;;;;;4.30;99.90;;;;;;4985969;28;1237;-62
2022/12/07 09:00:16;;;;;;;;;;;4.40;99.90;;;;;;4991082;28;1116;-62
2022/12/07 09:02:43;;;;;;;;;;;4.30;99.90;;;;;;4990556;28;2565;-62
2022/12/07 09:05:09;;;;;;;;;;;4.40;99.90;;;;;;4977767;28;1974;-62
2022/12/07 09:07:35;;;;;;;;;;;4.40;99.90;;;;;;4991044;28;1206;-62
2022/12/07 09:10:01;;;;;;;;;;;4.50;99.90;;;;;;4991117;28;1084;-61
2022/12/07 09:12:27;;;;;;;;;;;4.50;99.90;;;;;;4990792;28;1270;-62
2022/12/07 09:14:52;;;;;;;;;;;4.50;99.90;;;;;;4995830;28;1454;-62
2022/12/07 09:17:18;;;;;;;;;;;4.80;99.90;;;;;;4991449;28;1492;-62
2022/12/07 09:19:43;;;;;;;;;;;4.80;99.90;;;;;;4992438;28;1234;-62
2022/12/07 09:22:09;;;;;;;;;;;5.00;99.90;;;;;;4990688;28;1142;-62
2022/12/07 09:24:35;;;;;;;;;;;5.20;99.90;;;;;;4991889;28;1978;-62
2022/12/07 09:27:00;;;;;;;;;;;5.40;99.90;;;;;;4990402;28;1226;-62
2022/12/07 09:29:26;;;;;;;;;;;5.60;99.90;;;;;;4998615;28;1236;-62
2022/12/07 09:31:52;;;;;;;;;;;5.90;99.90;;;;;;4992893;28;1631;-62
2022/12/07 09:34:18;;;;;;;;;;;6.10;99.90;;;;;;4990498;28;1138;-62
2022/12/07 09:36:44;;;;;;;;;;;6.10;99.90;;;;;;4997948;28;1161;-62
2022/12/07 09:39:10;;;;;;;;;;;6.20;99.90;;;;;;4990456;28;1086;-62
2022/12/07 09:41:42;;;;;;;;;;;6.30;99.90;;;;;;4990877;28;1273;-62
2022/12/07 09:44:11;;;;;;;;;;;6.50;99.90;;;;;;4963964;28;1977;-62
2022/12/07 09:46:39;;;;;;;;;;;6.60;99.90;;;;;;4990745;28;1170;-62
2022/12/07 09:49:05;;;;;;;;;;;6.50;99.90;;;;;;5010626;28;1110;-62
2022/12/07 09:51:31;;;;;;;;;;;6.40;99.90;;;;;;4992439;28;1588;-61
2022/12/07 09:53:58;;;;;;;;;;;6.30;99.90;;;;;;4998125;28;1166;-62
2022/12/07 09:56:23;;;;;;;;;;;6.20;99.90;;;;;;4991703;28;1096;-61
2022/12/07 09:58:50;;;;;;;;;;;6.00;99.90;;;;;;4990301;28;1198;-62
2022/12/07 10:01:18;;;;;;;;;;;5.90;99.90;;;;;;4990025;28;1170;-62
2022/12/07 10:03:48;;;;;;;;;;;5.70;99.90;;;;;;4990292;28;1922;-62
2022/12/07 10:06:14;;;;;;;;;;;5.70;99.90;;;;;;5005010;28;1122;-62
2022/12/07 10:08:41;;;;;;;;;;;5.60;99.90;;;;;;5008575;28;1125;-62
2022/12/07 10:11:10;;;;;;;;;;;5.60;99.90;;;;;;4972906;28;1114;-62
2022/12/07 10:13:37;;;;;;;;;;;5.60;99.90;;;;;;4987750;28;3514;-62
2022/12/07 10:16:02;;;;;;;;;;;5.60;99.90;;;;;;4989438;28;3112;-62
2022/12/07 10:18:30;;;;;;;;;;;5.70;99.90;;;;;;4989664;28;3627;-62
2022/12/07 10:21:07;;;;;;;;;;;5.80;99.90;;;;;;4988874;28;1257;-62
2022/12/07 10:23:33;;;;;;;;;;;6.00;99.90;;;;;;4986698;28;2029;-62
2022/12/07 10:26:00;;;;;;;;;;;6.20;99.90;;;;;;5000874;28;1165;-62
2022/12/07 10:28:33;;;;;;;;;;;6.50;99.90;;;;;;4989284;28;1441;-62
2022/12/07 10:31:02;;;;;;;;;;;6.70;99.90;;;;;;4993251;28;2497;-62
2022/12/07 10:33:32;;;;;;;;;;;6.70;99.90;;;;;;4979261;28;1577;-62
2022/12/07 10:35:58;;;;;;;;;;;6.80;99.90;;;;;;4989753;28;1319;-62
2022/12/07 10:38:26;;;;;;;;;;;6.80;99.90;;;;;;4984743;28;1318;-62
2022/12/07 10:41:02;;;;;;;;;;;6.90;99.90;;;;;;4989706;28;1381;-60
2022/12/07 10:43:28;;;;;;;;;;;6.90;99.90;;;;;;5003450;28;1093;-62
2022/12/07 10:46:07;;;;;;;;;;;6.90;99.90;;;;;;5006878;28;1934;-62
2022/12/07 10:48:34;;;;;;;;;;;7.00;99.90;;;;;;4995053;28;1334;-61
2022/12/07 10:51:09;;;;;;;;;;;7.10;99.90;;;;;;4988798;28;1170;-62
2022/12/07 10:53:47;;;;;;;;;;;7.10;99.90;;;;;;4983728;28;1667;-62
2022/12/07 10:56:29;;;;;;;;;;;7.10;99.90;;;;;;4994775;28;1166;-62
2022/12/07 10:59:00;;;;;;;;;;;7.10;99.90;;;;;;4986900;28;1065;-62
2022/12/07 11:01:32;;;;;;;;;;;7.10;99.90;;;;;;4985293;28;2048;-62
2022/12/07 11:04:07;;;;;;;;;;;7.20;99.90;;;;;;4986645;28;1989;-62
2022/12/07 11:06:36;;;;;;;;;;;7.30;99.90;;;;;;4985597;28;1201;-63
2022/12/07 11:09:16;;;;;;;;;;;7.40;99.90;;;;;;4989342;28;1766;-61
2022/12/07 11:11:46;;;;;;;;;;;7.40;99.90;;;;;;4995017;28;990;-62
2022/12/07 11:14:19;;;;;;;;;;;7.50;99.90;;;;;;4999989;28;1146;-62
2022/12/07 11:16:57;;;;;;;;;;;8.30;99.90;;;;;;5009400;28;1074;-62
2022/12/07 11:19:26;;;;;;;;;;;8.90;99.90;;;;;;4990715;28;1856;-62
2022/12/07 11:21:57;;;;;;;;;;;9.40;99.90;;;;;;5009062;28;1070;-62
2022/12/07 11:24:34;;;;;;;;;;;9.50;99.90;;;;;;4994987;28;2020;-65
2022/12/07 11:27:01;;;;;;;;;;;9.30;99.90;;;;;;4971401;28;2028;-62
2022/12/07 11:29:27;;;;;;;;;;;9.10;99.90;;;;;;4989447;28;1134;-62
2022/12/07 11:31:59;;;;;;;;;;;9.10;99.90;;;;;;4970962;28;1616;-62
2022/12/07 11:34:32;;;;;;;;;;;9.10;99.90;;;;;;4963197;28;1131;-62
2022/12/07 11:36:57;;;;;;;;;;;8.90;99.90;;;;;;4992522;28;1301;-62
2022/12/07 11:39:24;;;;;;;;;;;9.10;99.90;;;;;;4994486;28;1260;-62
2022/12/07 11:41:52;;;;;;;;;;;9.40;99.90;;;;;;4997923;28;1194;-62
2022/12/07 11:44:26;;;;;;;;;;;9.80;99.90;;;;;;5003567;28;1907;-62
2022/12/07 11:46:58;;;;;;;;;;;10.30;99.90;;;;;;4993639;28;1234;-62
2022/12/07 11:49:33;;;;;;;;;;;10.60;99.90;;;;;;4994430;28;1237;-62
2022/12/07 11:52:02;;;;;;;;;;;10.60;99.90;;;;;;4995556;28;1265;-62
2022/12/07 11:54:31;;;;;;;;;;;10.30;99.90;;;;;;4989607;28;1199;-62
2022/12/07 11:57:03;;;;;;;;;;;9.70;99.90;;;;;;4993752;28;1079;-62
2022/12/07 11:59:36;;;;;;;;;;;9.00;99.90;;;;;;4990429;28;1226;-62
2022/12/07 12:02:01;;;;;;;;;;;8.40;99.90;;;;;;4992529;28;1237;-62
2022/12/07 12:04:46;;;;;;;;;;;8.00;99.90;;;;;;4992569;28;1983;-62
2022/12/07 12:07:15;;;;;;;;;;;7.60;99.90;;;;;;4990547;28;1218;-62
2022/12/07 12:09:48;;;;;;;;;;;7.30;99.90;;;;;;4994999;28;1131;-62
2022/12/07 12:12:20;;;;;;;;;;;7.10;99.90;;;;;;4984488;28;1111;-62
2022/12/07 12:14:58;;;;;;;;;;;6.90;99.90;;;;;;5005705;28;1260;-62
2022/12/07 12:17:39;;;;;;;;;;;6.60;99.90;;;;;;4999027;28;1107;-62
2022/12/07 12:20:04;;;;;;;;;;;6.50;99.90;;;;;;4992277;28;1103;-62
2022/12/07 12:22:37;;;;;;;;;;;6.40;99.90;;;;;;4991893;28;1114;-62
2022/12/07 12:25:05;;;;;;;;;;;6.30;99.90;;;;;;4983538;28;1967;-62
2022/12/07 12:27:31;;;;;;;;;;;6.30;99.90;;;;;;5007088;28;1118;-62
2022/12/07 12:29:59;;;;;;;;;;;6.30;99.90;;;;;;4974470;28;1322;-62
2022/12/07 12:32:38;;;;;;;;;;;6.50;99.90;;;;;;4992348;28;1302;-62
2022/12/07 12:35:18;;;;;;;;;;;6.60;99.90;;;;;;4989004;28;3159;-62
2022/12/07 12:37:45;;;;;;;;;;;6.70;99.90;;;;;;4985774;28;3107;-62
2022/12/07 12:40:14;;;;;;;;;;;6.90;99.90;;;;;;4991909;28;1118;-62
2022/12/07 12:42:45;;;;;;;;;;;7.50;99.90;;;;;;4990275;28;3325;-62
2022/12/07 12:45:18;;;;;;;;;;;8.20;99.90;;;;;;4992759;28;1981;-62
2022/12/07 12:47:55;;;;;;;;;;;8.90;99.90;;;;;;4981939;28;1096;-62
2022/12/07 12:50:24;;;;;;;;;;;9.50;99.90;;;;;;4990774;28;1142;-62
2022/12/07 12:52:55;;;;;;;;;;;10.00;99.90;;;;;;5001773;28;3088;-62
2022/12/07 12:55:26;;;;;;;;;;;10.10;99.90;;;;;;4969754;28;1115;-62
2022/12/07 12:58:11;;;;;;;;;;;10.00;99.90;;;;;;4973186;28;1159;-62
2022/12/07 13:00:37;;;;;;;;;;;9.70;99.90;;;;;;4995109;28;1297;-62
2022/12/07 13:03:03;;;;;;;;;;;9.40;99.90;;;;;;4988716;28;1221;-62
2022/12/07 13:05:30;;;;;;;;;;;8.90;99.90;;;;;;4990282;28;1977;-62
2022/12/07 13:07:57;;;;;;;;;;;8.40;99.90;;;;;;4991548;28;1095;-62
2022/12/07 13:10:24;;;;;;;;;;;8.10;99.90;;;;;;5000207;28;1257;-62
2022/12/07 13:12:55;;;;;;;;;;;8.10;99.90;;;;;;4993887;28;1237;-62
2022/12/07 13:15:31;;;;;;;;;;;8.80;99.90;;;;;;4994335;28;1466;-62
2022/12/07 13:17:58;;;;;;;;;;;9.30;99.90;;;;;;4988823;28;1151;-62
2022/12/07 13:20:42;;;;;;;;;;;9.30;99.90;;;;;;4990841;28;1238;-62
2022/12/07 13:23:09;;;;;;;;;;;8.90;99.90;;;;;;4979569;28;1174;-62
2022/12/07 13:25:37;;;;;;;;;;;8.50;99.90;;;;;;4980335;28;1958;-62
2022/12/07 13:28:13;;;;;;;;;;;8.20;99.90;;;;;;4988866;28;1238;-62
2022/12/07 13:30:45;;;;;;;;;;;7.80;99.90;;;;;;4990448;28;1271;-62
2022/12/07 13:33:12;;;;;;;;;;;7.50;99.90;;;;;;4991041;28;1369;-62
2022/12/07 13:35:37;;;;;;;;;;;7.20;99.90;;;;;;4990367;28;1349;-62
2022/12/07 13:38:14;;;;;;;;;;;7.00;99.90;;;;;;4991221;28;1301;-62
2022/12/07 13:40:40;;;;;;;;;;;6.80;99.90;;;;;;4972745;28;1107;-62
2022/12/07 13:43:13;;;;;;;;;;;6.60;99.90;;;;;;4991045;28;1123;-62
2022/12/07 13:45:47;;;;;;;;;;;6.10;99.90;;;;;;4995840;28;1918;-62
2022/12/07 13:48:24;;;;;;;;;;;5.80;99.90;;;;;;5010268;28;1157;-62
2022/12/07 13:50:57;;;;;;;;;;;5.50;99.90;;;;;;5010740;28;1082;-62
2022/12/07 13:53:23;;;;;;;;;;;5.10;99.90;;;;;;5000808;28;1185;-62
2022/12/07 13:55:49;;;;;;;;;;;4.70;99.90;;;;;;4990500;28;1036;-62
2022/12/07 13:58:14;;;;;;;;;;;4.40;99.90;;;;;;4972793;28;1127;-62
2022/12/07 14:00:41;;;;;;;;;;;4.40;99.90;;;;;;4990171;28;977;-62
2022/12/07 14:03:10;;;;;;;;;;;4.50;99.90;;;;;;4976737;28;1798;-63
2022/12/07 14:05:38;;;;;;;;;;;4.40;99.90;;;;;;4977561;28;1922;-62
2022/12/07 14:08:05;;;;;;;;;;;4.40;99.90;;;;;;4990660;28;1254;-62
2022/12/07 14:10:33;;;;;;;;;;;4.30;99.90;;;;;;4989909;28;1245;-61
2022/12/07 14:12:59;;;;;;;;;;;4.30;99.90;;;;;;4992136;28;1109;-61
2022/12/07 14:15:28;;;;;;;;;;;4.30;99.90;;;;;;4981202;28;1459;-62
2022/12/07 14:17:54;;;;;;;;;;;4.20;99.90;;;;;;4990560;28;1296;-61
2022/12/07 14:20:31;;;;;;;;;;;4.20;99.90;;;;;;4990834;28;1254;-61
2022/12/07 14:22:56;;;;;;;;;;;4.30;99.90;;;;;;4993351;28;1190;-61
2022/12/07 14:25:25;;;;;;;;;;;4.30;99.90;;;;;;4992516;28;1966;-61
2022/12/07 14:27:55;;;;;;;;;;;4.30;99.90;;;;;;4989658;28;1098;-61
2022/12/07 14:30:21;;;;;;;;;;;4.30;99.90;;;;;;4989943;28;1332;-61
2022/12/07 14:32:53;;;;;;;;;;;4.30;99.90;;;;;;4991664;28;1329;-62
2022/12/07 14:35:19;;;;;;;;;;;4.30;99.90;;;;;;4989102;28;1238;-61
2022/12/07 14:37:45;;;;;;;;;;;4.20;99.90;;;;;;4989388;28;1357;-61
2022/12/07 14:40:16;;;;;;;;;;;4.20;99.90;;;;;;4990057;28;1253;-61
2022/12/07 14:42:43;;;;;;;;;;;4.10;99.90;;;;;;4989642;28;1293;-61
2022/12/07 14:45:15;;;;;;;;;;;4.00;99.90;;;;;;4990958;28;1906;-61
2022/12/07 14:47:41;;;;;;;;;;;4.00;99.90;;;;;;4988996;28;1218;-61
2022/12/07 14:50:08;;;;;;;;;;;3.90;99.90;;;;;;4991267;28;1209;-61
2022/12/07 14:52:33;;;;;;;;;;;3.90;99.90;;;;;;4998752;28;1296;-61